Time;durP1;ratioP1;P1;durP2;ratioP2;P2;SDS_P1;SDS_P2;PMS_P1;PMS_P2;Temp;Humidity;BMP_temperature;BMP_pressure;BME280_temperature;BME280_humidity;BME280_pressure;Samples;Min_cycle;Max_cycle;Signal;HPM_P1;HPM_P2
2023/01/05 00:01:05;;;;;;;29.87;6.50;;;9.50;99.90;;;;;;4934842;28;20445;-80
2023/01/05 00:03:30;;;;;;;31.97;6.77;;;9.50;99.90;;;;;;4930101;28;20437;-80
2023/01/05 00:06:05;;;;;;;35.00;6.20;;;9.60;99.90;;;;;;4927816;28;20932;-78
2023/01/05 00:08:30;;;;;;;35.38;7.78;;;9.50;99.90;;;;;;4934646;28;20429;-80
2023/01/05 00:24:40;;;;;;;37.60;8.93;;;9.40;99.90;;;;;;4967272;28;20484;-79
2023/01/05 00:27:06;;;;;;;35.70;6.93;;;9.50;99.90;;;;;;4933052;28;20441;-80
2023/01/05 00:29:32;;;;;;;31.33;7.32;;;9.50;99.90;;;;;;4931476;28;20856;-81
2023/01/05 00:31:57;;;;;;;37.78;7.88;;;9.50;99.90;;;;;;4937301;28;20850;-80
2023/01/05 00:34:23;;;;;;;31.40;6.97;;;9.30;99.90;;;;;;4940236;28;20999;-79
2023/01/05 00:36:49;;;;;;;33.50;7.87;;;9.40;99.90;;;;;;4936527;28;20429;-79
2023/01/05 00:39:14;;;;;;;30.10;6.83;;;9.60;99.90;;;;;;4938562;28;20441;-76
2023/01/05 00:41:40;;;;;;;27.20;6.30;;;9.40;99.90;;;;;;4938911;28;20524;-81
2023/01/05 00:44:05;;;;;;;30.23;6.65;;;9.60;99.90;;;;;;4938671;28;20862;-79
2023/01/05 00:46:31;;;;;;;34.50;6.72;;;9.60;99.90;;;;;;4938810;28;20432;-80
2023/01/05 00:48:57;;;;;;;29.65;7.53;;;9.60;99.90;;;;;;4935889;28;20456;-80
2023/01/05 00:51:22;;;;;;;26.00;6.55;;;9.60;99.90;;;;;;4967928;28;20441;-81
2023/01/05 00:53:48;;;;;;;28.73;6.87;;;9.50;99.90;;;;;;4932219;28;20909;-78
2023/01/05 00:56:14;;;;;;;34.95;7.75;;;9.50;99.90;;;;;;4933085;28;20445;-78
2023/01/05 00:58:40;;;;;;;23.92;6.00;;;9.70;99.90;;;;;;4938556;28;20492;-79
2023/01/05 01:01:12;;;;;;;35.03;8.18;;;9.50;99.90;;;;;;4941282;28;20465;-80
2023/01/05 01:03:38;;;;;;;33.25;6.80;;;9.50;99.90;;;;;;4931756;28;20421;-81
2023/01/05 01:06:04;;;;;;;30.53;7.97;;;9.60;99.90;;;;;;4935443;28;20447;-78
2023/01/05 01:08:30;;;;;;;25.50;5.50;;;9.70;99.90;;;;;;4936945;28;20758;-81
2023/01/05 01:10:55;;;;;;;28.45;6.72;;;9.80;99.90;;;;;;4930472;28;20568;-79
2023/01/05 01:13:23;;;;;;;28.17;6.15;;;9.70;99.90;;;;;;4937986;28;20939;-79
2023/01/05 01:15:49;;;;;;;32.13;7.87;;;9.70;99.90;;;;;;4933991;28;20456;-81
2023/01/05 01:18:14;;;;;;;32.13;7.15;;;9.80;99.90;;;;;;4938004;28;20468;-78
2023/01/05 01:20:40;;;;;;;32.73;7.80;;;9.60;99.90;;;;;;4922066;28;20460;-80
2023/01/05 01:23:06;;;;;;;30.40;6.83;;;9.70;99.90;;;;;;4968411;28;20456;-81
2023/01/05 01:25:31;;;;;;;31.53;7.33;;;9.80;99.90;;;;;;4969752;28;20863;-80
2023/01/05 01:27:57;;;;;;;28.77;6.13;;;9.70;99.90;;;;;;4937659;28;20432;-80
2023/01/05 01:30:23;;;;;;;30.63;7.30;;;9.80;99.90;;;;;;4938374;28;20434;-80
2023/01/05 01:32:48;;;;;;;24.77;5.95;;;9.70;99.90;;;;;;4931134;28;21592;-78
2023/01/05 01:35:14;;;;;;;31.45;6.50;;;9.60;99.90;;;;;;4939613;28;20836;-76
2023/01/05 01:37:39;;;;;;;32.30;6.07;;;9.80;99.90;;;;;;4937776;28;20941;-79
2023/01/05 01:40:06;;;;;;;28.33;6.70;;;9.80;99.90;;;;;;4937528;28;20442;-80
2023/01/05 01:42:32;;;;;;;28.45;6.35;;;9.70;99.90;;;;;;4936265;28;20874;-80
2023/01/05 01:45:00;;;;;;;28.23;7.05;;;9.80;99.90;;;;;;4928319;28;20577;-79
2023/01/05 01:47:26;;;;;;;31.33;7.65;;;9.70;99.90;;;;;;4927556;28;20473;-78
2023/01/05 01:49:53;;;;;;;32.65;7.85;;;9.80;99.90;;;;;;4935526;28;20441;-80
2023/01/05 01:52:19;;;;;;;31.30;6.68;;;9.80;99.90;;;;;;4936546;28;20445;-80
2023/01/05 01:54:45;;;;;;;31.73;7.03;;;9.70;99.90;;;;;;4934221;28;20947;-80
2023/01/05 01:57:12;;;;;;;30.35;5.47;;;9.70;99.90;;;;;;4915661;28;20532;-77
2023/01/05 01:59:39;;;;;;;26.33;6.03;;;9.70;99.90;;;;;;4938279;28;20959;-79
2023/01/05 02:02:06;;;;;;;34.10;8.18;;;9.60;99.90;;;;;;4935217;28;20440;-78
2023/01/05 02:04:34;;;;;;;26.75;5.95;;;9.70;99.90;;;;;;4936828;28;20438;-80
2023/01/05 02:07:01;;;;;;;32.25;7.03;;;9.40;99.90;;;;;;4961992;28;20738;-76
2023/01/05 02:09:26;;;;;;;27.77;5.07;;;9.60;99.90;;;;;;4937852;28;20537;-79
2023/01/05 02:12:05;;;;;;;27.13;6.23;;;9.40;99.90;;;;;;4934065;28;20573;-78
2023/01/05 02:14:46;;;;;;;26.02;6.28;;;9.40;99.90;;;;;;4934043;28;20438;-79
2023/01/05 02:17:33;;;;;;;26.73;6.68;;;9.50;99.90;;;;;;4934771;28;20442;-75
2023/01/05 02:20:36;;;;;;;29.55;7.15;;;9.60;99.90;;;;;;4937704;28;20453;-79
2023/01/05 02:23:44;;;;;;;30.20;6.30;;;9.60;99.90;;;;;;4937779;28;20890;-78
2023/01/05 02:26:09;;;;;;;26.23;6.32;;;9.50;99.90;;;;;;4935099;28;20477;-78
2023/01/05 02:28:38;;;;;;;24.55;5.38;;;9.60;99.90;;;;;;4936607;28;20430;-79
2023/01/05 02:31:17;;;;;;;23.33;6.13;;;9.50;99.90;;;;;;4937796;28;20528;-80
2023/01/05 02:33:55;;;;;;;24.55;5.95;;;9.60;99.90;;;;;;4937815;28;20433;-79
2023/01/05 02:36:49;;;;;;;24.75;6.47;;;9.60;99.90;;;;;;4936482;28;20433;-77
2023/01/05 02:39:18;;;;;;;26.48;6.65;;;9.60;99.90;;;;;;4933871;28;20454;-77
2023/01/05 02:41:58;;;;;;;27.15;6.93;;;9.20;99.90;;;;;;4933177;28;20452;-80
2023/01/05 02:44:28;;;;;;;31.38;7.05;;;9.50;99.90;;;;;;4934814;28;20442;-77
2023/01/05 02:47:26;;;;;;;24.52;5.65;;;9.50;99.90;;;;;;4960683;28;20433;-77
2023/01/05 02:49:58;;;;;;;25.02;5.90;;;9.50;99.90;;;;;;4937353;28;20975;-76
2023/01/05 02:52:25;;;;;;;27.63;6.13;;;9.80;99.90;;;;;;4932459;28;21329;-80
2023/01/05 02:54:58;;;;;;;27.52;7.07;;;9.50;99.90;;;;;;4934823;28;20441;-80
2023/01/05 02:57:46;;;;;;;29.75;6.57;;;9.60;99.90;;;;;;4914139;28;20431;-80
2023/01/05 03:00:20;;;;;;;28.55;6.07;;;9.50;99.90;;;;;;4934619;28;20438;-78
2023/01/05 03:02:48;;;;;;;31.63;7.13;;;9.40;99.90;;;;;;4937876;28;20948;-79
2023/01/05 03:05:37;;;;;;;30.63;6.27;;;9.30;99.90;;;;;;4935622;28;20442;-76
2023/01/05 03:08:09;;;;;;;37.25;6.75;;;9.30;99.90;;;;;;4932709;28;22185;-77
2023/01/05 03:13:41;;;;;;;30.10;6.10;;;9.10;99.90;;;;;;4960196;28;20438;-79
2023/01/05 03:16:17;;;;;;;29.58;6.78;;;9.20;99.90;;;;;;4932046;28;20522;-78
2023/01/05 03:21:29;;;;;;;39.05;8.27;;;9.30;99.90;;;;;;4936379;28;20521;-79
2023/01/05 03:35:33;;;;;;;29.60;7.35;;;9.30;99.90;;;;;;4927900;28;20937;-79
2023/01/05 03:38:05;;;;;;;35.80;7.97;;;9.40;99.90;;;;;;4948746;28;20500;-79
2023/01/05 03:40:33;;;;;;;36.07;7.70;;;9.30;99.90;;;;;;4934665;28;20524;-79
2023/01/05 03:42:59;;;;;;;32.88;6.07;;;9.30;99.90;;;;;;4933042;28;20444;-76
2023/01/05 03:45:31;;;;;;;34.53;7.03;;;9.30;99.90;;;;;;4933992;28;20422;-76
2023/01/05 03:47:57;;;;;;;28.90;6.93;;;9.40;99.90;;;;;;4920981;29;20430;-79
2023/01/05 03:50:22;;;;;;;30.00;6.90;;;9.40;99.90;;;;;;4930868;28;20428;-80
2023/01/05 03:52:48;;;;;;;27.50;6.27;;;9.20;99.90;;;;;;4938573;28;21243;-78
2023/01/05 03:55:14;;;;;;;25.67;5.30;;;9.30;99.90;;;;;;4934381;28;20460;-77
2023/01/05 03:57:39;;;;;;;30.70;7.23;;;9.30;99.90;;;;;;4937137;28;21037;-79
2023/01/05 04:00:06;;;;;;;33.67;7.43;;;9.30;99.90;;;;;;4946223;28;20448;-80
2023/01/05 04:02:31;;;;;;;28.48;6.05;;;9.40;99.90;;;;;;4929568;28;20433;-79
2023/01/05 04:04:57;;;;;;;28.10;6.00;;;9.40;99.90;;;;;;4939890;28;20974;-76
2023/01/05 04:07:22;;;;;;;30.55;7.18;;;9.60;99.90;;;;;;4937847;28;21365;-79
2023/01/05 04:09:48;;;;;;;31.70;6.28;;;9.40;99.90;;;;;;4938301;28;20768;-76
2023/01/05 04:12:14;;;;;;;28.88;6.57;;;9.40;99.90;;;;;;4944329;28;20497;-79
2023/01/05 04:14:39;;;;;;;33.57;6.80;;;9.50;99.90;;;;;;4963834;28;20517;-81
2023/01/05 04:17:05;;;;;;;32.53;7.07;;;9.40;99.90;;;;;;4938086;28;20490;-80
2023/01/05 04:19:30;;;;;;;29.60;6.37;;;9.60;99.90;;;;;;4941732;28;20438;-78
2023/01/05 04:21:56;;;;;;;26.00;5.60;;;9.50;99.90;;;;;;4942777;28;20429;-79
2023/01/05 04:24:22;;;;;;;24.92;5.50;;;9.50;99.90;;;;;;4970841;28;20888;-80
2023/01/05 04:26:47;;;;;;;26.27;5.30;;;9.50;99.90;;;;;;4944859;28;20457;-80
2023/01/05 04:29:13;;;;;;;29.63;5.25;;;9.60;99.90;;;;;;4930968;28;20783;-81
2023/01/05 04:31:39;;;;;;;28.77;7.32;;;9.70;99.90;;;;;;4940460;28;20430;-80
2023/01/05 04:34:04;;;;;;;24.70;5.77;;;9.40;99.90;;;;;;4943498;28;20449;-80
2023/01/05 04:36:30;;;;;;;24.47;5.97;;;9.40;99.90;;;;;;4938235;28;20436;-78
2023/01/05 04:38:56;;;;;;;21.23;4.80;;;9.40;99.90;;;;;;4939903;28;20452;-79
2023/01/05 04:41:21;;;;;;;22.77;6.40;;;9.30;99.90;;;;;;4940914;28;20441;-77
2023/01/05 04:43:47;;;;;;;25.13;5.95;;;9.50;99.90;;;;;;4943350;28;20425;-77
2023/01/05 04:46:12;;;;;;;29.65;6.00;;;9.50;99.90;;;;;;4940330;28;20782;-80
2023/01/05 04:48:38;;;;;;;26.23;7.47;;;9.50;99.90;;;;;;4942287;28;20421;-80
2023/01/05 04:51:04;;;;;;;27.77;5.80;;;9.50;99.90;;;;;;4939727;28;20433;-80
2023/01/05 04:53:29;;;;;;;26.50;6.97;;;9.40;99.90;;;;;;4942302;28;20508;-77
2023/01/05 04:55:55;;;;;;;30.40;6.83;;;9.40;99.90;;;;;;4942643;29;20480;-79
2023/01/05 04:58:21;;;;;;;24.80;4.88;;;9.40;99.90;;;;;;4941652;28;20435;-77
2023/01/05 05:00:47;;;;;;;25.30;5.53;;;9.60;99.90;;;;;;4944225;28;20433;-78
2023/01/05 05:03:13;;;;;;;26.10;6.05;;;9.60;99.90;;;;;;4969394;28;20485;-79
2023/01/05 05:05:38;;;;;;;25.27;5.65;;;9.50;99.90;;;;;;4940290;28;20931;-80
2023/01/05 05:08:04;;;;;;;28.23;6.50;;;9.60;99.90;;;;;;4940543;28;20922;-79
2023/01/05 05:10:30;;;;;;;34.33;6.80;;;9.60;99.90;;;;;;4933020;28;20434;-82
2023/01/05 05:12:55;;;;;;;28.73;6.60;;;9.70;99.90;;;;;;4941744;28;20439;-80
2023/01/05 05:15:21;;;;;;;29.70;6.73;;;9.50;99.90;;;;;;4936736;28;20460;-78
2023/01/05 05:17:47;;;;;;;33.20;7.23;;;9.60;99.90;;;;;;4934730;28;20478;-80
2023/01/05 05:20:13;;;;;;;28.27;6.78;;;9.50;99.90;;;;;;4938033;28;20485;-80
2023/01/05 05:22:39;;;;;;;28.67;7.67;;;9.50;99.90;;;;;;4937896;28;20438;-80
2023/01/05 05:25:05;;;;;;;33.10;8.37;;;9.60;99.90;;;;;;4939360;28;20445;-79
2023/01/05 05:27:31;;;;;;;32.90;6.43;;;9.70;99.90;;;;;;4938116;28;20442;-78
2023/01/05 05:29:56;;;;;;;33.85;7.43;;;9.60;99.90;;;;;;4938692;28;20938;-78
2023/01/05 05:32:22;;;;;;;34.45;7.55;;;9.70;99.90;;;;;;4937461;28;20438;-79
2023/01/05 05:34:48;;;;;;;32.17;7.13;;;9.50;99.90;;;;;;4939782;28;20434;-78
2023/01/05 05:37:13;;;;;;;31.35;7.53;;;9.60;99.90;;;;;;4938761;28;21057;-78
2023/01/05 05:39:39;;;;;;;28.33;7.27;;;9.70;99.90;;;;;;4937098;28;20438;-78
2023/01/05 05:42:05;;;;;;;25.60;6.90;;;9.60;99.90;;;;;;4939472;29;20469;-79
2023/01/05 05:44:30;;;;;;;23.13;5.27;;;9.70;99.90;;;;;;4939605;28;20927;-78
2023/01/05 05:46:56;;;;;;;30.50;7.47;;;9.60;99.90;;;;;;4935217;28;20430;-77
2023/01/05 05:49:22;;;;;;;28.48;6.85;;;9.60;99.90;;;;;;4937199;28;20796;-79
2023/01/05 05:51:47;;;;;;;28.13;7.20;;;9.70;99.90;;;;;;4937963;28;20449;-76
2023/01/05 05:54:13;;;;;;;28.25;5.82;;;9.50;99.90;;;;;;4936440;28;20446;-77
2023/01/05 05:56:39;;;;;;;25.50;6.38;;;9.70;99.90;;;;;;4935069;28;20850;-80
2023/01/05 05:59:04;;;;;;;26.08;6.13;;;9.50;99.90;;;;;;4938428;28;20450;-78
2023/01/05 06:01:30;;;;;;;29.93;6.13;;;9.50;99.90;;;;;;4937927;29;21132;-78
2023/01/05 06:03:56;;;;;;;28.90;6.43;;;9.70;99.90;;;;;;4937733;28;20441;-78
2023/01/05 06:06:21;;;;;;;30.63;6.97;;;9.60;99.90;;;;;;4937520;28;20430;-76
2023/01/05 06:08:47;;;;;;;28.80;6.07;;;9.40;99.90;;;;;;4937848;28;20430;-77
2023/01/05 06:11:12;;;;;;;25.42;6.22;;;9.50;99.90;;;;;;4937650;28;20434;-77
2023/01/05 06:13:38;;;;;;;29.55;7.10;;;9.60;99.90;;;;;;4939051;28;20449;-78
2023/01/05 06:16:04;;;;;;;31.25;8.38;;;9.60;99.90;;;;;;4928511;28;20441;-77
2023/01/05 06:18:30;;;;;;;28.85;6.78;;;9.60;99.90;;;;;;4936361;28;20467;-77
2023/01/05 06:20:55;;;;;;;26.50;5.40;;;9.60;99.90;;;;;;4934565;28;20450;-78
2023/01/05 06:23:21;;;;;;;27.53;6.73;;;9.70;99.90;;;;;;4938020;28;20488;-76
2023/01/05 06:25:47;;;;;;;30.87;6.37;;;9.60;99.90;;;;;;4938024;28;20438;-78
2023/01/05 06:28:12;;;;;;;21.90;5.93;;;9.70;99.90;;;;;;4935295;28;21181;-77
2023/01/05 06:30:38;;;;;;;26.13;5.93;;;9.70;99.90;;;;;;4939107;28;21064;-77
2023/01/05 06:33:04;;;;;;;28.92;6.43;;;9.60;99.90;;;;;;4935752;28;20449;-77
2023/01/05 06:35:29;;;;;;;27.42;5.55;;;9.50;99.90;;;;;;4937771;28;20909;-76
2023/01/05 06:37:55;;;;;;;34.90;6.72;;;9.60;99.90;;;;;;4937587;28;20425;-78
2023/01/05 06:40:20;;;;;;;28.55;5.90;;;9.50;99.90;;;;;;4935412;28;20489;-78
2023/01/05 06:42:46;;;;;;;26.53;5.13;;;9.50;99.90;;;;;;4965513;28;20505;-76
2023/01/05 06:45:14;;;;;;;25.67;5.27;;;9.60;99.90;;;;;;4936773;28;20804;-75
2023/01/05 06:47:40;;;;;;;30.70;7.13;;;9.60;99.90;;;;;;4933420;28;20901;-78
2023/01/05 06:50:06;;;;;;;23.38;5.78;;;9.60;99.90;;;;;;4937941;28;21032;-77
2023/01/05 06:52:38;;;;;;;27.60;6.35;;;9.60;99.90;;;;;;4937135;28;20493;-78
2023/01/05 06:55:09;;;;;;;28.58;6.70;;;9.50;99.90;;;;;;4935233;28;20429;-77
2023/01/05 06:57:35;;;;;;;27.08;6.75;;;9.50;99.90;;;;;;4934309;28;20437;-78
2023/01/05 07:00:11;;;;;;;25.13;5.67;;;9.60;99.90;;;;;;4938480;28;20486;-78
2023/01/05 07:02:37;;;;;;;27.23;5.40;;;9.60;99.90;;;;;;4934416;28;20473;-78
2023/01/05 07:05:02;;;;;;;31.77;6.50;;;9.50;99.90;;;;;;4931165;28;20512;-76
2023/01/05 07:07:28;;;;;;;22.02;5.30;;;9.60;99.90;;;;;;4933622;28;20766;-74
2023/01/05 07:09:54;;;;;;;24.05;5.85;;;9.50;99.90;;;;;;4936234;28;20438;-75
2023/01/05 07:12:20;;;;;;;23.07;5.27;;;9.60;99.90;;;;;;4933250;28;20437;-77
2023/01/05 07:14:45;;;;;;;22.05;5.50;;;9.50;99.90;;;;;;4936836;28;20436;-77
2023/01/05 07:17:12;;;;;;;22.00;7.40;;;9.50;99.90;;;;;;4933789;28;20441;-77
2023/01/05 07:19:38;;;;;;;22.75;5.72;;;9.40;99.90;;;;;;4937790;28;20579;-76
2023/01/05 07:22:03;;;;;;;20.50;5.07;;;9.40;99.90;;;;;;4934314;28;20461;-78
2023/01/05 07:24:29;;;;;;;24.58;5.82;;;9.40;99.90;;;;;;4933042;28;20473;-78
2023/01/05 07:26:56;;;;;;;20.70;4.85;;;9.60;99.90;;;;;;4936269;28;20460;-78
2023/01/05 07:29:22;;;;;;;25.87;5.90;;;9.40;99.90;;;;;;4935981;28;20461;-78
2023/01/05 07:31:51;;;;;;;26.70;6.33;;;9.40;99.90;;;;;;4929221;28;20456;-77
2023/01/05 07:34:17;;;;;;;30.55;6.60;;;9.50;99.90;;;;;;4939321;28;20426;-78
2023/01/05 07:36:43;;;;;;;29.15;6.38;;;9.30;99.90;;;;;;4919771;28;20445;-78
2023/01/05 07:39:09;;;;;;;23.45;5.57;;;9.50;99.90;;;;;;4936365;28;20441;-79
2023/01/05 07:41:34;;;;;;;27.65;6.05;;;9.40;99.90;;;;;;4935725;28;20429;-78
2023/01/05 07:44:00;;;;;;;25.77;4.47;;;9.50;99.90;;;;;;4934139;28;20480;-77
2023/01/05 07:46:26;;;;;;;30.17;5.28;;;9.30;99.90;;;;;;4936638;28;20430;-78
2023/01/05 07:48:51;;;;;;;19.90;4.43;;;9.40;99.90;;;;;;4936640;28;20468;-78
2023/01/05 07:51:17;;;;;;;27.53;6.13;;;9.30;99.90;;;;;;4935931;28;20426;-76
2023/01/05 07:53:43;;;;;;;27.00;5.13;;;9.30;99.90;;;;;;4933462;28;20516;-79
2023/01/05 07:56:10;;;;;;;21.73;4.77;;;9.40;99.90;;;;;;4923740;28;20441;-80
2023/01/05 07:58:35;;;;;;;23.33;4.53;;;9.30;99.90;;;;;;4933676;28;20426;-79
2023/01/05 08:01:09;;;;;;;26.20;5.30;;;9.40;99.90;;;;;;4930883;28;20952;-77
2023/01/05 08:03:35;;;;;;;24.95;4.63;;;9.40;99.90;;;;;;4926887;28;20441;-80
2023/01/05 08:06:06;;;;;;;27.77;5.43;;;9.30;99.90;;;;;;4926253;28;20450;-80
2023/01/05 08:08:31;;;;;;;27.83;6.18;;;9.30;99.90;;;;;;4960223;28;20448;-80
2023/01/05 08:10:57;;;;;;;23.50;4.83;;;9.40;99.90;;;;;;4936313;28;20438;-76
2023/01/05 08:16:07;;;;;;;26.48;4.90;;;9.50;99.90;;;;;;4962096;28;20517;-76
2023/01/05 08:18:32;;;;;;;23.73;6.10;;;9.50;99.90;;;;;;4931947;29;20442;-79
2023/01/05 08:21:03;;;;;;;24.90;5.13;;;9.50;99.90;;;;;;4936734;29;20948;-76
2023/01/05 08:23:29;;;;;;;20.35;4.40;;;9.60;99.90;;;;;;4933802;28;20563;-76
2023/01/05 08:25:55;;;;;;;21.13;4.15;;;9.40;99.90;;;;;;4935704;28;20464;-83
2023/01/05 08:28:22;;;;;;;23.27;5.72;;;9.40;99.90;;;;;;4935718;28;20473;-82
2023/01/05 08:30:48;;;;;;;22.73;4.75;;;9.40;99.90;;;;;;4962773;28;21581;-78
2023/01/05 08:33:14;;;;;;;34.13;7.00;;;9.40;99.90;;;;;;4932171;29;20429;-79
2023/01/05 08:35:41;;;;;;;24.40;5.63;;;9.60;99.90;;;;;;4932031;28;20433;-80
2023/01/05 08:38:07;;;;;;;25.80;5.23;;;9.60;99.90;;;;;;4934070;28;20413;-78
2023/01/05 08:41:10;;;;;;;27.57;6.03;;;9.50;99.90;;;;;;4990821;23;20529;-77
2023/01/05 08:43:35;;;;;;;28.52;6.20;;;9.50;99.90;;;;;;4933818;28;20923;-81
2023/01/05 08:46:01;;;;;;;27.50;5.73;;;9.60;99.90;;;;;;4933275;29;20433;-78
2023/01/05 08:48:27;;;;;;;22.43;5.33;;;9.60;99.90;;;;;;4936105;28;21060;-81
2023/01/05 08:50:53;;;;;;;25.73;5.63;;;9.60;99.90;;;;;;4937862;28;20574;-79
2023/01/05 08:53:19;;;;;;;23.02;5.32;;;9.70;99.90;;;;;;4937865;29;20448;-80
2023/01/05 08:55:44;;;;;;;29.27;7.00;;;9.60;99.90;;;;;;4920292;29;20442;-80
2023/01/05 08:58:10;;;;;;;29.00;6.13;;;9.70;99.90;;;;;;4938777;28;20591;-81
2023/01/05 09:00:36;;;;;;;25.40;5.60;;;9.60;99.90;;;;;;4940520;28;20456;-80
2023/01/05 09:03:01;;;;;;;25.83;5.97;;;9.70;99.90;;;;;;4932743;29;20468;-79
2023/01/05 09:05:27;;;;;;;27.10;6.07;;;9.60;99.90;;;;;;4941760;28;20863;-82
2023/01/05 09:07:52;;;;;;;28.95;6.22;;;9.70;99.90;;;;;;4941764;29;20468;-78
2023/01/05 09:10:18;;;;;;;29.58;5.78;;;9.70;99.90;;;;;;4937861;28;20438;-82
2023/01/05 09:12:44;;;;;;;20.92;5.32;;;9.60;99.90;;;;;;4940811;28;20812;-86
2023/01/05 09:15:10;;;;;;;22.88;5.68;;;9.70;99.90;;;;;;4938003;29;20577;-84
2023/01/05 09:17:37;;;;;;;34.72;7.53;;;9.60;99.90;;;;;;4938995;28;20537;-80
2023/01/05 09:20:03;;;;;;;20.92;5.15;;;9.70;99.90;;;;;;4934891;29;20454;-77
2023/01/05 09:22:31;;;;;;;32.10;6.53;;;9.70;99.90;;;;;;4939328;28;20481;-81
2023/01/05 09:24:56;;;;;;;21.23;5.35;;;9.70;99.90;;;;;;4940865;28;20471;-79
2023/01/05 09:27:22;;;;;;;31.20;6.50;;;9.50;99.90;;;;;;4937672;28;20438;-80
2023/01/05 09:29:48;;;;;;;25.60;5.40;;;9.70;99.90;;;;;;4930548;28;20429;-82
2023/01/05 09:32:13;;;;;;;22.63;5.20;;;9.80;99.90;;;;;;4939300;28;20431;-82
2023/01/05 09:34:39;;;;;;;23.67;5.65;;;9.80;99.90;;;;;;4934451;29;20447;-81
2023/01/05 09:37:05;;;;;;;22.65;4.75;;;9.80;99.90;;;;;;4940694;28;20505;-80
2023/01/05 09:39:30;;;;;;;21.48;5.30;;;9.80;99.90;;;;;;4940156;28;20532;-80
2023/01/05 09:42:00;;;;;;;24.60;4.97;;;9.90;99.90;;;;;;4944609;28;20501;-76
2023/01/05 09:44:29;;;;;;;34.55;6.10;;;9.70;99.90;;;;;;4958168;28;20455;-80
2023/01/05 09:47:17;;;;;;;22.03;4.47;;;9.70;99.90;;;;;;4950793;28;20484;-79
2023/01/05 09:49:45;;;;;;;23.77;5.32;;;9.80;99.90;;;;;;4952299;28;20494;-80
2023/01/05 09:52:12;;;;;;;23.85;6.22;;;9.90;99.90;;;;;;4958893;28;20428;-77
2023/01/05 09:54:39;;;;;;;24.52;5.07;;;9.90;99.90;;;;;;4957810;28;20440;-80
2023/01/05 09:57:13;;;;;;;24.25;5.28;;;9.70;99.90;;;;;;4952237;28;20468;-79
2023/01/05 09:59:48;;;;;;;29.27;5.95;;;9.80;99.90;;;;;;4959981;28;20440;-79
2023/01/05 10:02:29;;;;;;;27.30;5.50;;;9.90;99.90;;;;;;4957986;28;20442;-80
2023/01/05 10:04:57;;;;;;;27.47;5.63;;;9.90;99.90;;;;;;4946910;28;20444;-79
2023/01/05 10:07:33;;;;;;;25.85;5.78;;;10.10;99.90;;;;;;4952124;28;20760;-80
2023/01/05 10:10:06;;;;;;;26.23;5.85;;;10.00;99.90;;;;;;4956517;28;20451;-79
2023/01/05 10:13:05;;;;;;;27.38;5.38;;;9.90;99.90;;;;;;4953932;28;20439;-80
2023/01/05 10:15:36;;;;;;;19.53;4.60;;;10.00;99.90;;;;;;4940997;28;20549;-77
2023/01/05 10:18:10;;;;;;;24.37;5.43;;;10.00;99.90;;;;;;4952132;28;20439;-78
2023/01/05 10:20:41;;;;;;;26.20;6.93;;;10.10;99.90;;;;;;4947981;28;20446;-80
2023/01/05 10:23:07;;;;;;;23.42;5.13;;;10.10;99.90;;;;;;4959512;28;20518;-79
2023/01/05 10:25:32;;;;;;;27.70;5.68;;;10.10;99.90;;;;;;4958715;28;21193;-79
2023/01/05 10:28:30;;;;;;;20.08;5.40;;;10.10;99.90;;;;;;4957184;28;20440;-78
2023/01/05 10:31:26;;;;;;;23.30;4.53;;;10.10;99.90;;;;;;4943261;28;20783;-79
2023/01/05 10:34:10;;;;;;;22.40;4.80;;;10.20;99.90;;;;;;4938078;28;20467;-79
2023/01/05 10:36:48;;;;;;;30.50;6.65;;;10.00;99.90;;;;;;4954724;28;20427;-76
2023/01/05 10:40:21;;;;;;;18.10;4.07;;;10.00;99.90;;;;;;4952347;28;20470;-78
2023/01/05 10:43:15;;;;;;;15.32;3.58;;;10.40;99.90;;;;;;4838560;28;20447;-76
2023/01/05 10:45:41;;;;;;;19.30;4.45;;;10.30;99.90;;;;;;4957739;28;20447;-79
2023/01/05 10:48:22;;;;;;;13.82;3.35;;;10.20;99.90;;;;;;4950493;28;20443;-77
2023/01/05 10:50:48;;;;;;;19.13;4.53;;;10.30;99.90;;;;;;4955611;28;21173;-76
2023/01/05 10:53:19;;;;;;;17.00;4.00;;;10.20;99.90;;;;;;4952065;28;20485;-75
2023/01/05 10:55:57;;;;;;;14.00;3.53;;;10.30;99.90;;;;;;4950107;28;20470;-76
2023/01/05 10:58:32;;;;;;;17.17;3.50;;;10.40;99.90;;;;;;4941424;28;20444;-76
2023/01/05 11:01:13;;;;;;;14.33;3.00;;;10.30;99.90;;;;;;4955548;28;20554;-76
2023/01/05 11:03:45;;;;;;;20.20;3.80;;;10.30;99.90;;;;;;4955758;28;20428;-76
2023/01/05 11:06:33;;;;;;;20.05;4.20;;;10.30;99.90;;;;;;4954582;28;20498;-76
2023/01/05 11:09:21;;;;;;;23.95;4.88;;;10.30;99.90;;;;;;4956997;28;20482;-75
2023/01/05 11:12:02;;;;;;;20.63;5.05;;;10.40;99.90;;;;;;4956689;28;20519;-76
2023/01/05 11:14:42;;;;;;;18.50;4.65;;;10.20;99.90;;;;;;4955996;28;20435;-76
2023/01/05 11:17:18;;;;;;;23.70;4.95;;;10.30;99.90;;;;;;4957990;28;20886;-75
2023/01/05 11:19:47;;;;;;;24.67;5.25;;;10.30;99.90;;;;;;4939406;28;20440;-75
2023/01/05 11:22:46;;;;;;;30.65;5.82;;;10.20;99.90;;;;;;4936206;28;20443;-74
2023/01/05 11:25:30;;;;;;;26.08;5.72;;;10.30;99.90;;;;;;4953403;28;20835;-73
2023/01/05 11:28:13;;;;;;;20.30;4.43;;;10.40;99.90;;;;;;4956336;28;20432;-74
2023/01/05 11:31:04;;;;;;;33.40;7.28;;;10.50;99.90;;;;;;4939317;28;20432;-75
2023/01/05 11:33:33;;;;;;;27.13;6.35;;;10.50;99.90;;;;;;4956852;28;20424;-75
2023/01/05 11:36:00;;;;;;;23.10;5.70;;;10.50;99.90;;;;;;4952883;28;20420;-74
2023/01/05 11:38:29;;;;;;;18.95;4.55;;;10.50;99.90;;;;;;4957380;28;20587;-75
2023/01/05 11:40:59;;;;;;;25.55;4.72;;;10.30;99.90;;;;;;4954675;28;20579;-74
2023/01/05 11:43:27;;;;;;;25.45;6.20;;;10.40;99.90;;;;;;4956681;28;20463;-77
2023/01/05 11:45:56;;;;;;;20.38;4.93;;;10.30;99.90;;;;;;4958884;28;20455;-74
2023/01/05 11:48:31;;;;;;;28.45;6.32;;;10.30;99.90;;;;;;4935126;28;20932;-75
2023/01/05 11:50:57;;;;;;;23.63;5.05;;;10.30;99.90;;;;;;4957024;28;20844;-74
2023/01/05 11:53:37;;;;;;;20.67;4.68;;;10.30;99.90;;;;;;4958590;28;20846;-75
2023/01/05 11:56:06;;;;;;;23.38;6.65;;;10.30;99.90;;;;;;4946917;28;20444;-76
2023/01/05 11:58:53;;;;;;;22.50;5.55;;;10.30;99.90;;;;;;4954078;28;20747;-78
2023/01/05 12:01:37;;;;;;;21.05;4.65;;;10.20;99.90;;;;;;4953916;28;20919;-79
2023/01/05 12:04:06;;;;;;;16.90;4.83;;;10.40;99.90;;;;;;4956147;28;20442;-77
2023/01/05 12:06:50;;;;;;;24.55;6.15;;;10.40;99.90;;;;;;4957280;28;20434;-79
2023/01/05 12:09:33;;;;;;;25.38;5.95;;;10.30;99.90;;;;;;4953629;28;20456;-79
2023/01/05 12:12:25;;;;;;;17.95;4.47;;;10.40;99.90;;;;;;4956271;28;20420;-77
2023/01/05 12:15:12;;;;;;;23.80;5.25;;;10.40;99.90;;;;;;4957909;28;20424;-77
2023/01/05 12:17:50;;;;;;;22.85;5.28;;;10.40;99.90;;;;;;4952173;28;20940;-79
2023/01/05 12:20:36;;;;;;;18.23;4.72;;;10.40;99.90;;;;;;4950136;28;20974;-80
2023/01/05 12:23:31;;;;;;;17.65;4.47;;;10.50;99.90;;;;;;4951142;28;20973;-75
2023/01/05 12:26:14;;;;;;;19.88;5.03;;;10.50;99.90;;;;;;4941132;28;20467;-78
2023/01/05 12:28:59;;;;;;;17.42;4.10;;;10.50;99.90;;;;;;4961237;28;20443;-80
2023/01/05 12:31:38;;;;;;;25.95;4.50;;;10.40;99.90;;;;;;4958683;28;20440;-77
2023/01/05 12:34:12;;;;;;;20.95;4.80;;;10.30;99.90;;;;;;4960424;28;20428;-79
2023/01/05 12:36:44;;;;;;;19.23;4.65;;;10.40;99.90;;;;;;4957592;28;20776;-81
2023/01/05 12:39:30;;;;;;;21.75;4.82;;;10.50;99.90;;;;;;4960660;28;20428;-78
2023/01/05 12:42:14;;;;;;;23.92;4.43;;;10.30;99.90;;;;;;4954618;28;20967;-78
2023/01/05 12:45:05;;;;;;;18.75;4.85;;;10.50;99.90;;;;;;4956761;28;20441;-78
2023/01/05 12:47:49;;;;;;;27.27;5.85;;;10.40;99.90;;;;;;4959239;28;20442;-79
2023/01/05 12:50:25;;;;;;;25.75;5.30;;;10.30;99.90;;;;;;4953224;28;20844;-78
2023/01/05 12:52:56;;;;;;;18.27;4.00;;;10.30;99.90;;;;;;4960666;28;20806;-77
2023/01/05 12:55:41;;;;;;;25.20;5.47;;;10.70;99.90;;;;;;4959253;28;20439;-78
2023/01/05 12:58:17;;;;;;;19.98;4.53;;;10.40;99.90;;;;;;4960279;28;20874;-77
2023/01/05 13:00:45;;;;;;;27.10;6.95;;;10.30;99.90;;;;;;4958660;28;20447;-79
2023/01/05 13:03:54;;;;;;;15.55;4.00;;;10.30;99.90;;;;;;4953725;28;20482;-78
2023/01/05 13:06:23;;;;;;;20.63;4.30;;;10.40;99.90;;;;;;4925370;28;20432;-78
2023/01/05 13:09:02;;;;;;;26.67;6.82;;;10.40;99.90;;;;;;4963105;28;20423;-78
2023/01/05 13:11:30;;;;;;;20.77;5.32;;;10.60;99.90;;;;;;4961518;28;20432;-78
2023/01/05 13:14:02;;;;;;;23.13;5.43;;;10.50;99.90;;;;;;4941707;28;21293;-78
2023/01/05 13:16:50;;;;;;;23.48;5.25;;;10.40;99.90;;;;;;4958800;28;20498;-78
2023/01/05 13:19:27;;;;;;;23.23;6.13;;;10.50;99.90;;;;;;4959433;28;21178;-76
2023/01/05 13:21:53;;;;;;;19.83;5.65;;;10.40;99.90;;;;;;4959815;28;20475;-77
2023/01/05 13:24:49;;;;;;;27.25;4.72;;;10.40;99.90;;;;;;4959370;28;20507;-79
2023/01/05 13:27:16;;;;;;;27.45;6.43;;;10.50;99.90;;;;;;4957582;28;20424;-79
2023/01/05 13:29:47;;;;;;;18.70;5.30;;;10.50;99.90;;;;;;4958479;28;20440;-79
2023/01/05 13:32:25;;;;;;;21.15;4.90;;;10.70;99.90;;;;;;4958675;28;21583;-78
2023/01/05 13:34:59;;;;;;;20.38;5.82;;;10.50;99.90;;;;;;4958426;28;20428;-79